sensor_id;sensor_type;location;lat;lon;timestamp;pressure;altitude;pressure_sealevel;temperature;humidity
59315;BME280;46521;50.160;20.802;2023-12-04T00:09:00;100355.06;;;-5.97;79.20
59315;BME280;46521;50.160;20.802;2023-12-04T00:19:02;100359.22;;;-5.94;78.84
59315;BME280;46521;50.160;20.802;2023-12-04T00:29:04;100358.86;;;-5.82;78.99
59315;BME280;46521;50.160;20.802;2023-12-04T00:39:05;100376.38;;;-5.65;79.16
59315;BME280;46521;50.160;20.802;2023-12-04T00:49:07;100366.63;;;-5.55;79.42
59315;BME280;46521;50.160;20.802;2023-12-04T00:59:08;100364.92;;;-5.56;79.36
59315;BME280;46521;50.160;20.802;2023-12-04T01:09:10;100374.31;;;-5.54;78.56
59315;BME280;46521;50.160;20.802;2023-12-04T01:19:11;100382.64;;;-5.74;77.75
59315;BME280;46521;50.160;20.802;2023-12-04T01:29:13;100389.86;;;-6.13;77.12
59315;BME280;46521;50.160;20.802;2023-12-04T01:39:14;100379.58;;;-6.45;77.88
59315;BME280;46521;50.160;20.802;2023-12-04T01:49:17;100383.94;;;-6.47;79.09
59315;BME280;46521;50.160;20.802;2023-12-04T01:59:18;100406.68;;;-6.31;79.16
59315;BME280;46521;50.160;20.802;2023-12-04T02:09:20;100407.53;;;-6.01;79.54
59315;BME280;46521;50.160;20.802;2023-12-04T02:19:21;100404.44;;;-5.84;79.17
59315;BME280;46521;50.160;20.802;2023-12-04T02:29:37;100386.78;;;-5.68;79.01
59315;BME280;46521;50.160;20.802;2023-12-04T02:39:39;100376.00;;;-5.53;79.37
59315;BME280;46521;50.160;20.802;2023-12-04T02:49:41;100375.05;;;-5.50;79.30
59315;BME280;46521;50.160;20.802;2023-12-04T02:59:42;100369.91;;;-5.79;78.76
59315;BME280;46521;50.160;20.802;2023-12-04T03:09:44;100373.22;;;-6.02;79.56
59315;BME280;46521;50.160;20.802;2023-12-04T03:19:45;100395.56;;;-6.34;77.98
59315;BME280;46521;50.160;20.802;2023-12-04T03:29:46;100401.08;;;-6.47;78.46
59315;BME280;46521;50.160;20.802;2023-12-04T03:39:50;100407.17;;;-6.50;78.61
59315;BME280;46521;50.160;20.802;2023-12-04T03:49:52;100413.48;;;-6.62;78.51
59315;BME280;46521;50.160;20.802;2023-12-04T03:59:54;100409.52;;;-6.74;78.46
59315;BME280;46521;50.160;20.802;2023-12-04T04:09:55;100415.22;;;-6.62;79.74
59315;BME280;46521;50.160;20.802;2023-12-04T04:19:57;100413.08;;;-6.46;79.53
59315;BME280;46521;50.160;20.802;2023-12-04T04:29:59;100410.17;;;-6.34;79.94
59315;BME280;46521;50.160;20.802;2023-12-04T04:40:01;100415.20;;;-6.29;79.82
59315;BME280;46521;50.160;20.802;2023-12-04T04:50:03;100419.80;;;-6.41;79.87
59315;BME280;46521;50.160;20.802;2023-12-04T05:00:05;100440.16;;;-6.64;79.07
59315;BME280;46521;50.160;20.802;2023-12-04T05:10:07;100438.53;;;-7.03;79.08
59315;BME280;46521;50.160;20.802;2023-12-04T05:20:08;100445.38;;;-7.39;79.02
59315;BME280;46521;50.160;20.802;2023-12-04T05:30:10;100456.77;;;-7.51;78.35
59315;BME280;46521;50.160;20.802;2023-12-04T05:40:12;100443.89;;;-7.50;78.58
59315;BME280;46521;50.160;20.802;2023-12-04T05:50:13;100458.67;;;-7.59;79.27
59315;BME280;46521;50.160;20.802;2023-12-04T06:00:15;100454.43;;;-7.62;78.28
59315;BME280;46521;50.160;20.802;2023-12-04T06:10:16;100453.63;;;-7.64;79.59
59315;BME280;46521;50.160;20.802;2023-12-04T06:20:18;100453.79;;;-7.72;78.51
59315;BME280;46521;50.160;20.802;2023-12-04T06:30:20;100463.16;;;-7.69;78.86
59315;BME280;46521;50.160;20.802;2023-12-04T06:40:22;100477.77;;;-7.73;79.55
59315;BME280;46521;50.160;20.802;2023-12-04T06:50:23;100473.75;;;-7.85;78.42
59315;BME280;46521;50.160;20.802;2023-12-04T07:00:25;100486.59;;;-7.85;78.01
59315;BME280;46521;50.160;20.802;2023-12-04T07:10:26;100482.68;;;-8.04;77.81
59315;BME280;46521;50.160;20.802;2023-12-04T07:20:28;100494.13;;;-8.21;77.56
59315;BME280;46521;50.160;20.802;2023-12-04T07:30:30;100489.45;;;-8.00;78.41
59315;BME280;46521;50.160;20.802;2023-12-04T07:40:31;100488.44;;;-7.51;78.54
59315;BME280;46521;50.160;20.802;2023-12-04T07:50:33;100479.95;;;-7.15;77.73
59315;BME280;46521;50.160;20.802;2023-12-04T08:00:35;100483.06;;;-6.66;79.06
59315;BME280;46521;50.160;20.802;2023-12-04T08:10:36;100490.09;;;-6.39;77.48
59315;BME280;46521;50.160;20.802;2023-12-04T08:20:38;100494.39;;;-6.06;77.07
59315;BME280;46521;50.160;20.802;2023-12-04T08:30:39;100497.45;;;-5.64;78.32
59315;BME280;46521;50.160;20.802;2023-12-04T08:40:41;100498.14;;;-5.29;77.75
59315;BME280;46521;50.160;20.802;2023-12-04T08:50:43;100503.05;;;-4.93;77.13
59315;BME280;46521;50.160;20.802;2023-12-04T09:00:45;100488.66;;;-4.46;77.39
59315;BME280;46521;50.160;20.802;2023-12-04T09:10:46;100495.25;;;-3.41;77.38
59315;BME280;46521;50.160;20.802;2023-12-04T09:20:48;100502.97;;;-2.53;76.88
59315;BME280;46521;50.160;20.802;2023-12-04T09:30:50;100483.69;;;-1.86;76.16
59315;BME280;46521;50.160;20.802;2023-12-04T09:40:52;100496.66;;;-1.29;75.93
59315;BME280;46521;50.160;20.802;2023-12-04T09:50:54;100478.60;;;-0.76;74.98
59315;BME280;46521;50.160;20.802;2023-12-04T10:00:56;100457.36;;;-0.49;74.81
59315;BME280;46521;50.160;20.802;2023-12-04T10:10:59;100439.42;;;-0.21;74.06
59315;BME280;46521;50.160;20.802;2023-12-04T10:21:01;100430.88;;;-0.23;73.42
59315;BME280;46521;50.160;20.802;2023-12-04T10:31:09;100414.27;;;-0.71;72.83
59315;BME280;46521;50.160;20.802;2023-12-04T10:41:14;100414.27;;;-1.06;72.97
59315;BME280;46521;50.160;20.802;2023-12-04T10:51:16;100411.73;;;-1.25;72.69
59315;BME280;46521;50.160;20.802;2023-12-04T11:01:19;100400.31;;;-1.40;72.83
59315;BME280;46521;50.160;20.802;2023-12-04T11:11:26;100390.52;;;-1.52;72.81
59315;BME280;46521;50.160;20.802;2023-12-04T11:21:31;100390.18;;;-1.64;72.08
59315;BME280;46521;50.160;20.802;2023-12-04T11:31:33;100381.86;;;-1.70;72.46
59315;BME280;46521;50.160;20.802;2023-12-04T11:41:35;100374.43;;;-1.78;72.39
59315;BME280;46521;50.160;20.802;2023-12-04T12:01:43;100358.68;;;-1.92;72.48
59315;BME280;46521;50.160;20.802;2023-12-04T12:11:44;100340.05;;;-2.01;72.50
59315;BME280;46521;50.160;20.802;2023-12-04T12:21:46;100342.64;;;-2.01;71.83
59315;BME280;46521;50.160;20.802;2023-12-04T12:31:50;100321.91;;;-2.01;72.18
59315;BME280;46521;50.160;20.802;2023-12-04T12:41:52;100312.44;;;-2.02;71.93
59315;BME280;46521;50.160;20.802;2023-12-04T12:51:54;100303.26;;;-2.09;72.07
59315;BME280;46521;50.160;20.802;2023-12-04T13:01:57;100293.59;;;-2.24;71.55
59315;BME280;46521;50.160;20.802;2023-12-04T13:12:06;100289.90;;;-2.38;71.17
59315;BME280;46521;50.160;20.802;2023-12-04T13:22:08;100285.48;;;-2.55;70.95
59315;BME280;46521;50.160;20.802;2023-12-04T13:32:10;100275.03;;;-2.72;71.00
59315;BME280;46521;50.160;20.802;2023-12-04T13:42:12;100261.94;;;-2.88;70.89
59315;BME280;46521;50.160;20.802;2023-12-04T13:52:32;100264.55;;;-3.09;71.23
59315;BME280;46521;50.160;20.802;2023-12-04T14:02:35;100260.86;;;-3.23;71.01
59315;BME280;46521;50.160;20.802;2023-12-04T14:12:38;100252.52;;;-3.51;71.46
59315;BME280;46521;50.160;20.802;2023-12-04T14:22:42;100247.86;;;-3.63;71.26
59315;BME280;46521;50.160;20.802;2023-12-04T14:32:43;100242.53;;;-3.81;71.41
59315;BME280;46521;50.160;20.802;2023-12-04T14:42:45;100230.34;;;-3.99;71.45
59315;BME280;46521;50.160;20.802;2023-12-04T14:52:47;100221.39;;;-4.12;71.89
59315;BME280;46521;50.160;20.802;2023-12-04T15:02:51;100212.58;;;-4.29;71.64
59315;BME280;46521;50.160;20.802;2023-12-04T15:13:08;100208.71;;;-4.41;71.84
59315;BME280;46521;50.160;20.802;2023-12-04T15:23:13;100203.84;;;-4.48;72.23
59315;BME280;46521;50.160;20.802;2023-12-04T15:33:15;100200.00;;;-4.60;71.85
59315;BME280;46521;50.160;20.802;2023-12-04T15:43:17;100196.13;;;-4.72;71.96
59315;BME280;46521;50.160;20.802;2023-12-04T15:53:19;100195.81;;;-4.86;72.49
59315;BME280;46521;50.160;20.802;2023-12-04T16:03:20;100191.79;;;-4.94;72.52
59315;BME280;46521;50.160;20.802;2023-12-04T16:13:22;100187.13;;;-5.08;72.54
59315;BME280;46521;50.160;20.802;2023-12-04T16:23:23;100174.62;;;-5.18;72.52
59315;BME280;46521;50.160;20.802;2023-12-04T16:33:25;100175.16;;;-5.34;72.30
59315;BME280;46521;50.160;20.802;2023-12-04T16:43:27;100163.47;;;-5.44;72.80
59315;BME280;46521;50.160;20.802;2023-12-04T16:53:29;100157.09;;;-5.57;72.86
59315;BME280;46521;50.160;20.802;2023-12-04T17:03:32;100148.08;;;-5.71;72.26
59315;BME280;46521;50.160;20.802;2023-12-04T17:13:34;100149.25;;;-5.80;72.31
59315;BME280;46521;50.160;20.802;2023-12-04T17:23:35;100132.36;;;-5.88;73.34
59315;BME280;46521;50.160;20.802;2023-12-04T17:33:37;100131.38;;;-5.84;73.12
59315;BME280;46521;50.160;20.802;2023-12-04T17:43:39;100108.76;;;-5.76;72.95
59315;BME280;46521;50.160;20.802;2023-12-04T17:53:41;100104.92;;;-5.64;73.59
59315;BME280;46521;50.160;20.802;2023-12-04T18:03:43;100113.11;;;-5.53;73.99
59315;BME280;46521;50.160;20.802;2023-12-04T18:13:45;100100.06;;;-5.48;72.82
59315;BME280;46521;50.160;20.802;2023-12-04T18:23:47;100086.42;;;-5.52;73.45
59315;BME280;46521;50.160;20.802;2023-12-04T18:33:50;100079.22;;;-5.42;73.70
59315;BME280;46521;50.160;20.802;2023-12-04T18:43:52;100070.63;;;-5.43;73.93
59315;BME280;46521;50.160;20.802;2023-12-04T18:53:53;100062.84;;;-5.41;73.56
59315;BME280;46521;50.160;20.802;2023-12-04T19:03:55;100061.84;;;-5.37;73.43
59315;BME280;46521;50.160;20.802;2023-12-04T19:13:56;100044.07;;;-5.45;73.87
59315;BME280;46521;50.160;20.802;2023-12-04T19:23:58;100038.31;;;-5.51;73.94
59315;BME280;46521;50.160;20.802;2023-12-04T19:34:00;100022.96;;;-5.54;74.01
59315;BME280;46521;50.160;20.802;2023-12-04T19:44:01;99995.61;;;-5.58;74.06
59315;BME280;46521;50.160;20.802;2023-12-04T19:54:03;99971.70;;;-5.62;74.31
59315;BME280;46521;50.160;20.802;2023-12-04T20:04:06;100012.27;;;-5.67;74.32
59315;BME280;46521;50.160;20.802;2023-12-04T20:14:08;99993.38;;;-5.68;74.20
59315;BME280;46521;50.160;20.802;2023-12-04T20:24:10;99969.84;;;-5.58;74.05
59315;BME280;46521;50.160;20.802;2023-12-04T20:34:11;99972.08;;;-5.49;74.44
59315;BME280;46521;50.160;20.802;2023-12-04T20:44:13;99985.45;;;-5.39;74.07
59315;BME280;46521;50.160;20.802;2023-12-04T20:54:14;99982.81;;;-5.38;74.31
59315;BME280;46521;50.160;20.802;2023-12-04T21:04:16;99949.86;;;-5.30;74.11
59315;BME280;46521;50.160;20.802;2023-12-04T21:14:17;99964.34;;;-5.27;74.19
59315;BME280;46521;50.160;20.802;2023-12-04T21:24:19;99953.09;;;-5.25;74.61
59315;BME280;46521;50.160;20.802;2023-12-04T21:34:21;99929.11;;;-5.27;73.80
59315;BME280;46521;50.160;20.802;2023-12-04T21:44:22;99931.25;;;-5.38;73.76
59315;BME280;46521;50.160;20.802;2023-12-04T21:54:24;99948.52;;;-5.40;74.54
59315;BME280;46521;50.160;20.802;2023-12-04T22:04:25;99939.22;;;-5.44;74.57
59315;BME280;46521;50.160;20.802;2023-12-04T22:14:27;99918.84;;;-5.50;74.81
59315;BME280;46521;50.160;20.802;2023-12-04T22:24:28;99919.52;;;-5.67;74.49
59315;BME280;46521;50.160;20.802;2023-12-04T22:34:30;99907.69;;;-5.73;73.89
59315;BME280;46521;50.160;20.802;2023-12-04T22:44:31;99895.16;;;-5.82;74.32
59315;BME280;46521;50.160;20.802;2023-12-04T22:54:32;99867.72;;;-6.05;73.25
59315;BME280;46521;50.160;20.802;2023-12-04T23:04:34;99872.49;;;-6.18;73.80
59315;BME280;46521;50.160;20.802;2023-12-04T23:14:36;99842.80;;;-6.27;74.81
59315;BME280;46521;50.160;20.802;2023-12-04T23:24:37;99808.48;;;-6.27;74.39
59315;BME280;46521;50.160;20.802;2023-12-04T23:34:39;99811.70;;;-6.22;74.26
59315;BME280;46521;50.160;20.802;2023-12-04T23:44:40;99805.98;;;-6.07;75.35
59315;BME280;46521;50.160;20.802;2023-12-04T23:54:42;99804.65;;;-5.95;75.33
